createdAt,value
2022-09-23T00:00:44.015Z,92.13
2022-09-23T00:01:44.078Z,92.03
2022-09-23T00:02:44.070Z,92.23
2022-09-23T00:03:43.994Z,92.23
2022-09-23T00:04:44.002Z,92.13
2022-09-23T00:05:43.974Z,92.13
2022-09-23T00:06:43.984Z,92.33
2022-09-23T00:07:43.974Z,91.93
2022-09-23T00:08:44.022Z,92.33
2022-09-23T00:09:43.963Z,92.03
2022-09-23T00:10:44.593Z,91.72
2022-09-23T00:11:43.882Z,91.82
2022-09-23T00:12:43.876Z,91.72
2022-09-23T00:13:43.852Z,92.03
2022-09-23T00:14:43.849Z,91.67
2022-09-23T00:15:43.832Z,91.88
2022-09-23T00:16:43.896Z,91.88
2022-09-23T00:17:43.813Z,91.47
2022-09-23T00:18:43.790Z,90.85
2022-09-23T00:19:43.790Z,90.75
2022-09-23T00:20:43.760Z,90.75
2022-09-23T00:21:43.751Z,90.95
2022-09-23T00:22:43.742Z,91.06
2022-09-23T00:23:43.741Z,90.85
2022-09-23T00:24:43.730Z,90.65
2022-09-23T00:25:43.731Z,90.65
2022-09-23T00:26:43.700Z,90.24
2022-09-23T00:27:43.723Z,90.55
2022-09-23T00:28:43.830Z,90.03
2022-09-23T00:29:43.700Z,90.44
2022-09-23T00:30:43.794Z,90.44
2022-09-23T00:31:43.699Z,90.44
2022-09-23T00:32:43.643Z,90.75
2022-09-23T00:33:43.648Z,90.65
2022-09-23T00:34:43.604Z,90.85
2022-09-23T00:35:43.577Z,90.24
2022-09-23T00:36:43.567Z,90.95
2022-09-23T00:37:43.555Z,90.85
2022-09-23T00:38:43.537Z,90.24
2022-09-23T00:39:43.538Z,90.03
2022-09-23T00:40:43.584Z,90.03
2022-09-23T00:41:43.496Z,90.24
2022-09-23T00:42:43.511Z,90.14
2022-09-23T00:43:43.466Z,90.14
2022-09-23T00:44:43.466Z,90.24
2022-09-23T00:45:43.494Z,90.24
2022-09-23T00:46:43.435Z,90.24
2022-09-23T00:47:43.425Z,90.55
2022-09-23T00:48:43.419Z,90.55
2022-09-23T00:49:43.435Z,90.24
2022-09-23T00:50:43.386Z,90.34
2022-09-23T00:51:43.379Z,90.24
2022-09-23T00:52:43.356Z,90.14
2022-09-23T00:53:43.337Z,90.34
2022-09-23T00:54:43.346Z,90.48
2022-09-23T00:55:43.315Z,89.93
2022-09-23T00:56:43.310Z,89.62
2022-09-23T00:57:43.305Z,89.72
2022-09-23T00:58:43.292Z,90.14
2022-09-23T00:59:43.324Z,89.72
2022-09-23T01:00:43.254Z,89.52
2022-09-23T01:01:43.263Z,89.52
2022-09-23T01:02:43.255Z,89.42
2022-09-23T01:03:43.214Z,90.14
2022-09-23T01:04:43.214Z,89.62
2022-09-23T01:05:43.193Z,89.62
2022-09-23T01:06:43.173Z,89.72
2022-09-23T01:07:43.162Z,89.42
2022-09-23T01:08:43.157Z,89.31
2022-09-23T01:09:43.146Z,89.21
2022-09-23T01:10:43.124Z,89.11
2022-09-23T01:11:43.112Z,89.52
2022-09-23T01:12:43.104Z,89.42
2022-09-23T01:13:43.083Z,89.83
2022-09-23T01:14:43.096Z,89.62
2022-09-23T01:15:43.063Z,89.52
2022-09-23T01:16:43.121Z,89.62
2022-09-23T01:17:43.033Z,89.62
2022-09-23T01:18:43.032Z,89.52
2022-09-23T01:19:43.022Z,89.62
2022-09-23T01:20:43.005Z,89.42
2022-09-23T01:21:42.992Z,89.62
2022-09-23T01:22:42.971Z,90.03
2022-09-23T01:23:42.960Z,89.31
2022-09-23T01:24:42.972Z,89.42
2022-09-23T01:25:42.931Z,89.42
2022-09-23T01:26:42.931Z,89.72
2022-09-23T01:27:42.921Z,89.97
2022-09-23T01:28:42.919Z,89.97
2022-09-23T01:29:42.899Z,90.48
2022-09-23T01:30:42.946Z,90.69
2022-09-23T01:31:42.862Z,90.28
2022-09-23T01:32:42.849Z,90.38
2022-09-23T01:33:42.830Z,90.28
2022-09-23T01:34:42.830Z,90.48
2022-09-23T01:35:42.809Z,90.38
2022-09-23T01:36:42.799Z,90.59
2022-09-23T01:37:42.779Z,90.18
2022-09-23T01:38:42.770Z,90.18
2022-09-23T01:39:42.763Z,90.18
2022-09-23T01:40:42.819Z,90.18
2022-09-23T01:41:42.741Z,90.28
2022-09-23T01:42:42.729Z,90.24
2022-09-23T01:43:42.709Z,90.14
2022-09-23T01:44:42.718Z,90.14
2022-09-23T01:45:42.708Z,90.03
2022-09-23T01:46:42.689Z,89.93
2022-09-23T01:47:42.648Z,89.62
2022-09-23T01:48:42.667Z,89.76
2022-09-23T01:49:42.678Z,90.24
2022-09-23T01:50:42.651Z,89.62
2022-09-23T01:51:42.598Z,89.72
2022-09-23T01:52:42.588Z,89.87
2022-09-23T01:53:42.567Z,89.76
2022-09-23T01:54:42.576Z,89.87
2022-09-23T01:55:42.546Z,90.28
2022-09-23T01:56:50.048Z,90.38
2022-09-23T01:57:50.025Z,90.38
2022-09-23T01:58:42.514Z,90.28
2022-09-23T01:59:42.514Z,90.59
2022-09-23T02:00:42.486Z,90.48
2022-09-23T02:01:42.537Z,90.59
2022-09-23T02:02:42.521Z,90.80
2022-09-23T02:03:42.445Z,90.59
2022-09-23T02:04:42.457Z,90.53
2022-09-23T02:05:42.422Z,91.55
2022-09-23T02:06:42.414Z,91.86
2022-09-23T02:07:42.403Z,91.97
2022-09-23T02:08:42.384Z,91.76
2022-09-23T02:09:42.382Z,91.70
2022-09-23T02:10:42.362Z,92.32
2022-09-23T02:11:42.351Z,92.32
2022-09-23T02:12:42.333Z,92.52
2022-09-23T02:13:42.314Z,92.32
2022-09-23T02:14:42.313Z,93.18
2022-09-23T02:15:42.292Z,93.59
2022-09-23T02:16:42.445Z,93.74
2022-09-23T02:17:42.262Z,93.95
2022-09-23T02:18:42.253Z,94.05
2022-09-23T02:19:42.250Z,94.40
2022-09-23T02:20:42.234Z,94.60
2022-09-23T02:21:42.221Z,94.71
2022-09-23T02:22:42.202Z,95.12
2022-09-23T02:23:42.181Z,95.68
2022-09-23T02:24:42.202Z,95.78
2022-09-23T02:25:42.181Z,95.78
2022-09-23T02:26:42.151Z,96.09
2022-09-23T02:27:42.141Z,96.09
2022-09-23T02:28:42.128Z,96.03
2022-09-23T02:29:42.121Z,96.03
2022-09-23T02:30:42.102Z,96.03
2022-09-23T02:31:42.139Z,96.55
2022-09-23T02:32:42.072Z,96.75
2022-09-23T02:33:42.059Z,97.21
2022-09-23T02:34:42.060Z,97.21
2022-09-23T02:35:42.029Z,97.31
2022-09-23T02:36:42.029Z,97.63
2022-09-23T02:37:42.008Z,97.63
2022-09-23T02:38:41.997Z,98.24
2022-09-23T02:39:42.019Z,98.08
2022-09-23T02:40:42.084Z,98.19
2022-09-23T02:41:41.962Z,98.60
2022-09-23T02:42:41.939Z,99.01
2022-09-23T02:43:41.927Z,99.01
2022-09-23T02:44:41.929Z,99.01
2022-09-23T02:45:41.974Z,99.22
2022-09-23T02:46:41.887Z,99.01
2022-09-23T02:47:41.876Z,98.91
2022-09-23T02:48:41.866Z,98.85
2022-09-23T02:49:41.859Z,98.85
2022-09-23T02:50:41.847Z,98.96
2022-09-23T02:51:41.838Z,98.96
2022-09-23T02:52:41.820Z,99.16
2022-09-23T02:53:41.797Z,99.37
2022-09-23T02:54:41.796Z,99.68
2022-09-23T02:55:41.774Z,99.52
2022-09-23T02:56:41.759Z,99.88
2022-09-23T02:57:41.745Z,99.93
2022-09-23T02:58:41.740Z,99.82
2022-09-23T02:59:41.726Z,99.93
2022-09-23T03:00:41.711Z,99.99
2022-09-23T03:01:41.763Z,99.99
2022-09-23T03:02:41.858Z,99.99
2022-09-23T03:03:41.666Z,99.99
2022-09-23T03:04:41.666Z,99.99
2022-09-23T03:05:41.652Z,99.99
2022-09-23T03:06:41.636Z,99.99
2022-09-23T03:07:41.614Z,99.99
2022-09-23T03:08:41.646Z,99.99
2022-09-23T03:09:41.593Z,99.99
2022-09-23T03:10:41.584Z,99.99
2022-09-23T03:11:41.563Z,99.99
2022-09-23T03:12:41.553Z,99.99
2022-09-23T03:13:41.535Z,99.99
2022-09-23T03:14:41.541Z,99.99
2022-09-23T03:15:41.512Z,99.99
2022-09-23T03:16:41.528Z,99.99
2022-09-23T03:17:41.513Z,99.99
2022-09-23T03:18:41.474Z,99.99
2022-09-23T03:19:41.472Z,99.99
2022-09-23T03:20:41.451Z,99.99
2022-09-23T03:21:41.434Z,99.99
2022-09-23T03:22:41.422Z,99.99
2022-09-23T03:23:41.412Z,99.99
2022-09-23T03:24:41.402Z,99.99
2022-09-23T03:25:41.392Z,99.99
2022-09-23T03:26:41.371Z,99.99
2022-09-23T03:27:41.350Z,99.99
2022-09-23T03:28:41.341Z,99.99
2022-09-23T03:29:41.328Z,99.99
2022-09-23T03:30:41.330Z,99.99
2022-09-23T03:31:41.353Z,99.99
2022-09-23T03:32:41.289Z,99.99
2022-09-23T03:33:41.290Z,99.99
2022-09-23T03:34:41.269Z,99.99
2022-09-23T03:35:41.260Z,99.99
2022-09-23T03:36:41.239Z,99.99
2022-09-23T03:37:41.228Z,99.99
2022-09-23T03:38:41.212Z,99.99
2022-09-23T03:39:41.205Z,99.99
2022-09-23T03:40:41.260Z,99.99
2022-09-23T03:41:41.168Z,99.99
2022-09-23T03:42:41.159Z,99.99
2022-09-23T03:43:41.146Z,99.99
2022-09-23T03:44:41.137Z,99.99
2022-09-23T03:45:41.161Z,99.99
2022-09-23T03:46:41.108Z,99.99
2022-09-23T03:47:41.095Z,99.99
2022-09-23T03:48:41.087Z,99.99
2022-09-23T03:49:41.067Z,99.99
2022-09-23T03:50:41.069Z,99.99
2022-09-23T03:51:44.491Z,99.99
2022-09-23T03:52:41.055Z,99.99
2022-09-23T03:53:41.020Z,99.99
2022-09-23T03:54:41.005Z,99.99
2022-09-23T03:55:40.995Z,99.99
2022-09-23T03:56:40.976Z,99.99
2022-09-23T03:57:40.974Z,99.99
2022-09-23T03:58:40.957Z,99.99
2022-09-23T03:59:40.943Z,99.99
2022-09-23T04:00:40.967Z,99.99
2022-09-23T04:01:40.993Z,99.99
2022-09-23T04:02:40.906Z,99.99
2022-09-23T04:03:40.896Z,99.99
2022-09-23T04:04:40.885Z,99.99
2022-09-23T04:05:40.875Z,99.99
2022-09-23T04:06:40.853Z,99.99
2022-09-23T04:07:40.843Z,99.99
2022-09-23T04:08:40.823Z,99.99
2022-09-23T04:09:40.813Z,99.99
2022-09-23T04:10:40.803Z,99.99
2022-09-23T04:11:40.783Z,99.99
2022-09-23T04:12:40.772Z,99.99
2022-09-23T04:13:40.762Z,99.99
2022-09-23T04:14:40.751Z,99.99
2022-09-23T04:15:40.742Z,99.99
2022-09-23T04:16:40.775Z,99.99
2022-09-23T04:17:40.712Z,99.99
2022-09-23T04:18:40.702Z,99.99
2022-09-23T04:19:40.680Z,99.99
2022-09-23T04:20:40.682Z,99.99
2022-09-23T04:21:40.651Z,99.99
2022-09-23T04:22:40.653Z,99.99
2022-09-23T04:23:40.629Z,99.99
2022-09-23T04:24:40.620Z,99.99
2022-09-23T04:25:40.610Z,99.99
2022-09-23T04:26:40.591Z,99.99
2022-09-23T04:27:40.578Z,99.99
2022-09-23T04:28:40.570Z,99.99
2022-09-23T04:29:40.586Z,99.99
2022-09-23T04:30:40.557Z,99.99
2022-09-23T04:31:40.619Z,99.99
2022-09-23T04:32:40.510Z,99.99
2022-09-23T04:33:40.499Z,99.99
2022-09-23T04:34:40.489Z,99.99
2022-09-23T04:35:40.623Z,99.99
2022-09-23T04:36:40.473Z,99.99
2022-09-23T04:37:40.440Z,99.99
2022-09-23T04:38:40.441Z,99.99
2022-09-23T04:39:40.418Z,99.99
2022-09-23T04:40:40.490Z,99.99
2022-09-23T04:41:40.407Z,99.99
2022-09-23T04:42:40.385Z,99.99
2022-09-23T04:43:40.379Z,99.99
2022-09-23T04:44:40.347Z,99.99
2022-09-23T04:45:40.364Z,99.99
2022-09-23T04:46:40.559Z,99.99
2022-09-23T04:47:40.316Z,99.99
2022-09-23T04:48:40.296Z,99.99
2022-09-23T04:49:40.295Z,99.99
2022-09-23T04:50:40.285Z,99.99
2022-09-23T04:51:40.276Z,99.99
2022-09-23T04:52:40.252Z,99.99
2022-09-23T04:53:40.244Z,99.99
2022-09-23T04:54:40.247Z,99.99
2022-09-23T04:55:40.225Z,99.99
2022-09-23T04:56:40.195Z,99.99
2022-09-23T04:57:40.184Z,99.99
2022-09-23T04:58:40.174Z,99.99
2022-09-23T04:59:40.164Z,99.99
2022-09-23T05:00:40.236Z,99.99
2022-09-23T05:01:40.333Z,99.99
2022-09-23T05:02:40.197Z,99.99
2022-09-23T05:03:40.113Z,99.99
2022-09-23T05:04:40.097Z,99.99
2022-09-23T05:05:40.092Z,99.99
2022-09-23T05:06:40.073Z,99.99
2022-09-23T05:07:40.059Z,99.99
2022-09-23T05:08:40.042Z,99.99
2022-09-23T05:09:40.031Z,99.99
2022-09-23T05:10:40.022Z,99.99
2022-09-23T05:11:40.011Z,99.99
2022-09-23T05:12:39.992Z,99.99
2022-09-23T05:13:39.990Z,99.99
2022-09-23T05:14:39.969Z,99.99
2022-09-23T05:15:39.968Z,99.99
2022-09-23T05:16:39.985Z,99.99
2022-09-23T05:17:39.931Z,99.99
2022-09-23T05:18:39.910Z,99.99
2022-09-23T05:19:39.923Z,99.99
2022-09-23T05:20:39.898Z,99.99
2022-09-23T05:21:39.880Z,99.99
2022-09-23T05:22:39.860Z,99.99
2022-09-23T05:23:39.859Z,99.99
2022-09-23T05:24:39.840Z,99.99
2022-09-23T05:25:39.839Z,99.99
2022-09-23T05:26:39.808Z,99.99
2022-09-23T05:27:39.800Z,99.99
2022-09-23T05:28:39.780Z,99.99
2022-09-23T05:29:39.777Z,99.99
2022-09-23T05:30:39.768Z,99.99
2022-09-23T05:31:39.784Z,99.99
2022-09-23T05:32:39.737Z,99.99
2022-09-23T05:33:39.728Z,99.99
2022-09-23T05:34:39.707Z,99.99
2022-09-23T05:35:39.707Z,99.99
2022-09-23T05:36:39.676Z,99.99
2022-09-23T05:37:39.681Z,99.99
2022-09-23T05:38:39.657Z,99.99
2022-09-23T05:39:39.638Z,99.99
2022-09-23T05:40:39.700Z,99.99
2022-09-23T05:41:39.617Z,99.99
2022-09-23T05:42:39.607Z,99.99
2022-09-23T05:43:39.595Z,99.99
2022-09-23T05:44:39.605Z,99.99
2022-09-23T05:45:39.577Z,99.99
2022-09-23T05:46:39.604Z,99.99
2022-09-23T05:47:39.548Z,99.99
2022-09-23T05:48:39.526Z,99.99
2022-09-23T05:49:58.487Z,99.99
2022-09-23T05:50:40.506Z,99.99
2022-09-23T05:51:39.484Z,99.99
2022-09-23T05:52:39.474Z,99.99
2022-09-23T05:53:39.584Z,99.99
2022-09-23T05:54:39.444Z,99.99
2022-09-23T05:55:39.453Z,99.99
2022-09-23T05:56:39.423Z,99.99
2022-09-23T05:57:39.411Z,99.99
2022-09-23T05:58:39.393Z,99.99
2022-09-23T05:59:39.383Z,99.99
2022-09-23T06:00:39.401Z,99.99
2022-09-23T06:01:39.459Z,99.99
2022-09-23T06:02:39.476Z,99.99
2022-09-23T06:03:39.342Z,99.99
2022-09-23T06:04:39.312Z,99.99
2022-09-23T06:05:39.323Z,99.99
2022-09-23T06:06:39.292Z,99.99
2022-09-23T06:07:39.288Z,99.99
2022-09-23T06:08:39.367Z,99.99
2022-09-23T06:09:39.269Z,99.99
2022-09-23T06:10:39.243Z,99.99
2022-09-23T06:11:39.232Z,99.99
2022-09-23T06:12:39.211Z,99.99
2022-09-23T06:13:39.204Z,99.99
2022-09-23T06:14:39.201Z,99.60
2022-09-23T06:15:39.230Z,98.99
2022-09-23T06:16:39.159Z,97.81
2022-09-23T06:17:39.157Z,97.40
2022-09-23T06:18:39.141Z,97.05
2022-09-23T06:19:39.139Z,96.84
2022-09-23T06:20:39.109Z,96.48
2022-09-23T06:21:39.099Z,96.28
2022-09-23T06:22:40.239Z,95.25
2022-09-23T06:23:41.550Z,94.95
2022-09-23T06:24:39.079Z,94.39
2022-09-23T06:25:39.058Z,94.39
2022-09-23T06:26:39.029Z,94.80
2022-09-23T06:27:39.029Z,94.55
2022-09-23T06:28:39.008Z,93.63
2022-09-23T06:29:39.000Z,92.86
2022-09-23T06:30:38.990Z,93.13
2022-09-23T06:31:39.021Z,91.86
2022-09-23T06:32:38.961Z,90.32
2022-09-23T06:33:38.947Z,89.56
2022-09-23T06:34:49.666Z,89.11
2022-09-23T06:35:40.417Z,87.84
2022-09-23T06:36:43.782Z,87.29
2022-09-23T06:37:39.895Z,85.55
2022-09-23T06:38:38.878Z,85.30
2022-09-23T06:39:38.869Z,85.10
2022-09-23T06:40:38.935Z,84.65
2022-09-23T06:41:38.858Z,84.34
2022-09-23T06:42:38.827Z,83.79
2022-09-23T06:43:38.816Z,83.48
2022-09-23T06:44:38.796Z,82.42
2022-09-23T06:45:38.797Z,81.60
2022-09-23T06:46:38.975Z,81.20
2022-09-23T06:47:38.766Z,81.51
2022-09-23T06:48:41.731Z,81.30
2022-09-23T06:49:39.738Z,81.77
2022-09-23T06:50:38.726Z,81.16
2022-09-23T06:51:38.716Z,80.75
2022-09-23T06:52:38.695Z,80.24
2022-09-23T06:53:38.676Z,79.52
2022-09-23T06:54:38.695Z,80.41
2022-09-23T06:55:38.679Z,79.39
2022-09-23T06:56:39.716Z,80.00
2022-09-23T06:57:38.636Z,79.80
2022-09-23T06:58:38.615Z,80.68
2022-09-23T06:59:38.617Z,78.74
2022-09-23T07:00:38.605Z,78.53
2022-09-23T07:01:38.737Z,78.74
2022-09-23T07:02:38.647Z,77.82
2022-09-23T07:03:38.566Z,77.41
2022-09-23T07:04:38.549Z,76.35
2022-09-23T07:05:38.554Z,77.78
2022-09-23T07:06:38.548Z,77.75
2022-09-23T07:07:38.495Z,77.24
2022-09-23T07:08:38.485Z,77.24
2022-09-23T07:09:38.474Z,76.39
2022-09-23T07:10:38.623Z,75.98
2022-09-23T07:11:38.457Z,73.80
2022-09-23T07:12:38.432Z,74.72
2022-09-23T07:13:38.425Z,74.52
2022-09-23T07:14:38.455Z,73.60
2022-09-23T07:15:38.614Z,74.41
2022-09-23T07:16:38.405Z,73.19
2022-09-23T07:17:38.385Z,74.11
2022-09-23T07:18:38.406Z,73.06
2022-09-23T07:19:38.349Z,73.60
2022-09-23T07:20:38.343Z,73.80
2022-09-23T07:21:38.345Z,73.33
2022-09-23T07:22:38.364Z,72.41
2022-09-23T07:23:38.305Z,73.23
2022-09-23T07:24:38.277Z,72.99
2022-09-23T07:25:38.284Z,73.60
2022-09-23T07:26:42.253Z,73.26
2022-09-23T07:27:39.244Z,73.06
2022-09-23T07:28:38.293Z,71.80
2022-09-23T07:29:47.299Z,72.01
2022-09-23T07:30:41.184Z,71.77
2022-09-23T07:31:40.040Z,71.30
2022-09-23T07:32:47.685Z,71.47
2022-09-23T07:33:39.217Z,71.97
2022-09-23T07:34:38.143Z,70.86
2022-09-23T07:35:38.144Z,71.47
2022-09-23T07:36:38.164Z,70.92
2022-09-23T07:37:38.143Z,70.52
2022-09-23T07:38:42.778Z,71.03
2022-09-23T07:39:39.108Z,70.42
2022-09-23T07:40:38.246Z,71.73
2022-09-23T07:41:38.058Z,71.64
2022-09-23T07:42:38.044Z,72.75
2022-09-23T07:43:38.036Z,72.45
2022-09-23T07:44:38.013Z,72.85
2022-09-23T07:45:38.013Z,72.25
2022-09-23T07:46:38.031Z,72.45
2022-09-23T07:47:37.993Z,72.96
2022-09-23T07:48:37.961Z,72.01
2022-09-23T07:49:37.953Z,71.20
2022-09-23T07:50:37.948Z,71.40
2022-09-23T07:51:37.924Z,71.33
2022-09-23T07:52:37.902Z,71.43
2022-09-23T07:53:37.904Z,72.34
2022-09-23T07:54:37.882Z,73.26
2022-09-23T07:55:37.882Z,72.55
2022-09-23T07:56:37.856Z,71.73
2022-09-23T07:57:37.843Z,72.55
2022-09-23T07:58:37.846Z,73.06
2022-09-23T07:59:37.823Z,71.50
2022-09-23T08:00:37.803Z,73.43
2022-09-23T08:01:37.806Z,71.70
2022-09-23T08:02:37.796Z,72.62
2022-09-23T08:03:37.763Z,71.20
2022-09-23T08:04:37.768Z,72.11
2022-09-23T08:05:37.732Z,70.55
2022-09-23T08:06:37.712Z,70.68
2022-09-23T08:07:37.702Z,69.84
2022-09-23T08:08:37.696Z,70.96
2022-09-23T08:09:37.694Z,72.58
2022-09-23T08:10:37.663Z,71.73
2022-09-23T08:11:37.661Z,71.09
2022-09-23T08:12:37.642Z,69.57
2022-09-23T08:13:37.639Z,69.17
2022-09-23T08:14:37.621Z,69.34
2022-09-23T08:15:37.721Z,68.83
2022-09-23T08:16:37.591Z,69.34
2022-09-23T08:17:37.575Z,67.99
2022-09-23T08:18:37.561Z,67.79
2022-09-23T08:19:37.564Z,67.92
2022-09-23T08:20:37.556Z,68.12
2022-09-23T08:21:37.586Z,68.02
2022-09-23T08:22:37.529Z,68.32
2022-09-23T08:23:37.503Z,68.93
2022-09-23T08:24:37.491Z,68.90
2022-09-23T08:25:37.480Z,69.20
2022-09-23T08:26:37.472Z,68.36
2022-09-23T08:27:37.444Z,67.55
2022-09-23T08:28:37.433Z,67.25
2022-09-23T08:29:37.431Z,67.45
2022-09-23T08:30:37.437Z,67.96
2022-09-23T08:31:37.391Z,68.26
2022-09-23T08:32:37.388Z,66.64
2022-09-23T08:33:37.377Z,69.74
2022-09-23T08:34:37.361Z,67.05
2022-09-23T08:35:37.343Z,65.80
2022-09-23T08:36:37.321Z,67.82
2022-09-23T08:37:37.311Z,66.91
2022-09-23T08:38:37.320Z,67.62
2022-09-23T08:39:37.301Z,68.43
2022-09-23T08:40:37.314Z,68.02
2022-09-23T08:41:37.261Z,67.72
2022-09-23T08:42:37.253Z,66.67
2022-09-23T08:43:37.246Z,67.49
2022-09-23T08:44:37.233Z,69.18
2022-09-23T08:45:37.213Z,66.55
2022-09-23T08:46:37.201Z,66.85
2022-09-23T08:47:37.183Z,67.15
2022-09-23T08:48:37.172Z,66.24
2022-09-23T08:49:37.171Z,65.94
2022-09-23T08:50:37.143Z,66.14
2022-09-23T08:51:37.129Z,66.85
2022-09-23T08:52:37.111Z,66.04
2022-09-23T08:53:37.101Z,66.35
2022-09-23T08:54:37.092Z,65.23
2022-09-23T08:55:37.081Z,66.82
2022-09-23T08:56:37.063Z,66.04
2022-09-23T08:57:37.050Z,66.61
2022-09-23T08:58:37.053Z,67.80
2022-09-23T08:59:37.031Z,66.45
2022-09-23T09:00:37.020Z,66.62
2022-09-23T09:01:37.039Z,63.59
2022-09-23T09:02:37.002Z,63.59
2022-09-23T09:03:36.980Z,65.18
2022-09-23T09:04:36.962Z,63.29
2022-09-23T09:05:36.951Z,63.96
2022-09-23T09:06:51.800Z,62.76
2022-09-23T09:07:38.422Z,63.46
2022-09-23T09:08:36.915Z,64.75
2022-09-23T09:09:36.893Z,62.83
2022-09-23T09:10:36.900Z,61.32
2022-09-23T09:11:36.861Z,63.30
2022-09-23T09:12:36.852Z,63.10
2022-09-23T09:13:36.850Z,62.32
2022-09-23T09:14:36.832Z,62.32
2022-09-23T09:15:36.844Z,63.81
2022-09-23T09:16:58.480Z,62.40
2022-09-23T09:17:37.798Z,62.90
2022-09-23T09:18:36.781Z,62.57
2022-09-23T09:19:36.762Z,61.96
2022-09-23T09:20:36.771Z,62.77
2022-09-23T09:21:36.742Z,59.88
2022-09-23T09:23:36.714Z,63.76
2022-09-23T09:24:36.702Z,63.93
2022-09-23T09:25:36.708Z,63.23
2022-09-23T09:26:36.682Z,63.33
2022-09-23T09:27:36.663Z,64.75
2022-09-23T09:28:36.654Z,62.29
2022-09-23T09:29:36.786Z,63.10
2022-09-23T09:30:36.698Z,63.90
2022-09-23T09:31:36.640Z,62.37
2022-09-23T09:32:36.592Z,62.26
2022-09-23T09:33:36.585Z,63.04
2022-09-23T09:34:36.570Z,62.84
2022-09-23T09:35:36.582Z,62.46
2022-09-23T09:36:36.550Z,63.95
2022-09-23T09:37:36.528Z,63.34
2022-09-23T09:38:36.523Z,61.93
2022-09-23T09:39:36.502Z,61.23
2022-09-23T09:40:36.542Z,61.13
2022-09-23T09:41:36.490Z,62.61
2022-09-23T09:42:36.463Z,61.73
2022-09-23T09:43:38.016Z,60.63
2022-09-23T09:44:37.205Z,60.19
2022-09-23T09:45:36.450Z,59.79
2022-09-23T09:46:36.453Z,59.99
2022-09-23T09:47:36.394Z,61.10
2022-09-23T09:48:36.414Z,60.89
2022-09-23T09:49:40.353Z,58.65
2022-09-23T09:50:36.372Z,59.76
2022-09-23T09:51:36.342Z,59.56
2022-09-23T09:52:37.994Z,58.42
2022-09-23T09:53:36.259Z,58.93
2022-09-23T09:54:36.258Z,59.43
2022-09-23T09:55:36.249Z,57.65
2022-09-23T09:56:36.323Z,58.68
2022-09-23T09:57:36.350Z,60.39
2022-09-23T09:58:36.207Z,59.08
2022-09-23T09:59:36.187Z,59.01
2022-09-23T10:00:36.186Z,59.82
2022-09-23T10:01:36.211Z,59.22
2022-09-23T10:02:36.195Z,59.62
2022-09-23T10:03:36.132Z,61.83
2022-09-23T10:04:36.157Z,61.23
2022-09-23T10:05:36.125Z,59.22
2022-09-23T10:06:36.097Z,59.59
2022-09-23T10:07:36.084Z,58.25
2022-09-23T10:08:36.064Z,59.46
2022-09-23T10:09:36.055Z,58.35
2022-09-23T10:10:36.066Z,58.86
2022-09-23T10:11:36.030Z,61.14
2022-09-23T10:12:36.014Z,59.23
2022-09-23T10:13:36.016Z,59.23
2022-09-23T10:14:35.983Z,59.13
2022-09-23T10:15:35.982Z,58.53
2022-09-23T10:16:36.036Z,58.45
2022-09-23T10:17:35.944Z,59.46
2022-09-23T10:18:35.944Z,59.16
2022-09-23T10:19:35.913Z,59.26
2022-09-23T10:20:35.924Z,58.73
2022-09-23T10:21:35.902Z,58.12
2022-09-23T10:22:35.882Z,59.63
2022-09-23T10:23:35.864Z,56.69
2022-09-23T10:24:35.863Z,57.72
2022-09-23T10:25:35.854Z,58.83
2022-09-23T10:26:35.834Z,56.79
2022-09-23T10:27:35.849Z,56.99
2022-09-23T10:28:35.804Z,57.19
2022-09-23T10:29:35.792Z,57.90
2022-09-23T10:30:35.814Z,57.77
2022-09-23T10:31:35.765Z,55.86
2022-09-23T10:32:35.774Z,57.67
2022-09-23T10:33:35.737Z,57.46
2022-09-23T10:34:35.747Z,55.23
2022-09-23T10:35:35.716Z,56.36
2022-09-23T10:36:35.706Z,55.16
2022-09-23T10:37:35.695Z,56.29
2022-09-23T10:38:35.677Z,56.16
2022-09-23T10:39:35.678Z,55.28
2022-09-23T10:40:35.709Z,56.86
2022-09-23T10:41:35.638Z,56.36
2022-09-23T10:42:35.639Z,54.05
2022-09-23T10:43:35.611Z,54.35
2022-09-23T10:44:35.600Z,53.45
2022-09-23T10:45:38.541Z,54.05
2022-09-23T10:46:36.635Z,53.65
2022-09-23T10:47:35.574Z,53.95
2022-09-23T10:48:35.552Z,53.95
2022-09-23T10:49:35.533Z,55.93
2022-09-23T10:50:35.539Z,53.02
2022-09-23T10:51:35.514Z,53.45
2022-09-23T10:52:35.505Z,54.15
2022-09-23T10:53:35.486Z,54.13
2022-09-23T10:54:35.477Z,53.62
2022-09-23T10:55:35.466Z,51.92
2022-09-23T10:56:35.453Z,53.72
2022-09-23T10:57:35.436Z,52.51
2022-09-23T10:58:35.428Z,54.80
2022-09-23T10:59:35.410Z,54.53
2022-09-23T11:00:35.408Z,52.22
2022-09-23T11:01:35.436Z,53.32
2022-09-23T11:02:35.391Z,52.42
2022-09-23T11:03:35.363Z,51.09
2022-09-23T11:04:35.431Z,52.49
2022-09-23T11:05:35.341Z,53.00
2022-09-23T11:06:35.322Z,52.49
2022-09-23T11:07:37.188Z,50.79
2022-09-23T11:08:35.302Z,52.87
2022-09-23T11:09:35.283Z,52.37
2022-09-23T11:10:46.098Z,51.87
2022-09-23T11:11:36.254Z,50.66
2022-09-23T11:12:35.247Z,51.67
2022-09-23T11:13:35.233Z,51.29
2022-09-23T11:14:35.230Z,51.59
2022-09-23T11:15:35.224Z,51.49
2022-09-23T11:16:35.242Z,50.48
2022-09-23T11:17:35.181Z,52.09
2022-09-23T11:18:35.167Z,50.26
2022-09-23T11:19:35.165Z,51.37
2022-09-23T11:20:35.148Z,50.04
2022-09-23T11:21:35.130Z,51.14
2022-09-23T11:22:35.122Z,49.04
2022-09-23T11:23:35.108Z,50.06
2022-09-23T11:24:35.101Z,51.17
2022-09-23T11:25:35.087Z,52.04
2022-09-23T11:26:35.071Z,51.12
2022-09-23T11:27:35.058Z,50.42
2022-09-23T11:28:35.041Z,50.71
2022-09-23T11:29:35.034Z,49.01
2022-09-23T11:30:35.052Z,49.04
2022-09-23T11:31:35.107Z,49.63
2022-09-23T11:32:34.992Z,49.81
2022-09-23T11:33:35.002Z,51.12
2022-09-23T11:34:34.972Z,49.89
2022-09-23T11:35:34.952Z,47.81
2022-09-23T11:36:34.953Z,47.71
2022-09-23T11:37:34.924Z,49.91
2022-09-23T11:38:34.922Z,48.51
2022-09-23T11:39:34.927Z,49.41
2022-09-23T11:40:34.962Z,50.39
2022-09-23T11:41:34.872Z,48.81
2022-09-23T11:42:34.864Z,49.23
2022-09-23T11:43:34.846Z,50.04
2022-09-23T11:44:34.846Z,49.43
2022-09-23T11:45:34.864Z,50.11
2022-09-23T11:46:34.812Z,52.62
2022-09-23T11:47:39.468Z,50.51
2022-09-23T11:48:35.784Z,49.91
2022-09-23T11:49:34.768Z,49.41
2022-09-23T11:50:34.777Z,49.81
2022-09-23T11:51:34.736Z,47.85
2022-09-23T11:52:34.740Z,49.56
2022-09-23T11:53:34.728Z,51.17
2022-09-23T11:54:34.712Z,51.76
2022-09-23T11:55:34.728Z,50.56
2022-09-23T11:56:36.596Z,50.59
2022-09-23T11:57:44.639Z,49.28
2022-09-23T11:58:35.697Z,51.59
2022-09-23T11:59:39.920Z,50.38
2022-09-23T12:00:35.640Z,51.26
2022-09-23T12:01:37.665Z,51.44
2022-09-23T12:02:34.682Z,50.54
2022-09-23T12:03:43.091Z,49.23
2022-09-23T12:04:36.393Z,51.64
2022-09-23T12:05:34.729Z,48.75
2022-09-23T12:06:34.594Z,49.46
2022-09-23T12:07:34.534Z,49.78
2022-09-23T12:08:34.530Z,49.40
2022-09-23T12:09:57.362Z,50.91
2022-09-23T12:10:35.493Z,51.51
2022-09-23T12:11:34.504Z,51.81
2022-09-23T12:12:34.481Z,52.12
2022-09-23T12:13:34.471Z,51.31
2022-09-23T12:14:34.475Z,50.89
2022-09-23T12:15:34.447Z,51.89
2022-09-23T12:16:34.499Z,49.91
2022-09-23T12:17:34.424Z,52.09
2022-09-23T12:18:34.471Z,50.68
2022-09-23T12:19:35.489Z,51.09
2022-09-23T12:20:34.373Z,50.99
2022-09-23T12:21:51.355Z,52.29
2022-09-23T12:22:35.358Z,50.99
2022-09-23T12:23:34.334Z,51.69
2022-09-23T12:24:34.338Z,52.89
2022-09-23T12:25:34.306Z,50.18
2022-09-23T12:26:34.320Z,50.51
2022-09-23T12:27:34.316Z,52.12
2022-09-23T12:28:34.353Z,51.81
2022-09-23T12:29:34.286Z,52.42
2022-09-23T12:30:34.442Z,51.89
2022-09-23T12:31:37.551Z,50.31
2022-09-23T12:32:35.215Z,51.21
2022-09-23T12:33:34.228Z,52.59
2022-09-23T12:34:34.216Z,50.41
2022-09-23T12:35:34.174Z,51.39
2022-09-23T12:36:34.163Z,52.97
2022-09-23T12:37:34.157Z,51.54
2022-09-23T12:38:34.138Z,49.54
2022-09-23T12:39:34.137Z,49.21
2022-09-23T12:40:34.175Z,52.39
2022-09-23T12:41:34.119Z,50.42
2022-09-23T12:42:34.129Z,50.71
2022-09-23T12:43:34.080Z,50.92
2022-09-23T12:44:34.129Z,48.83
2022-09-23T12:45:34.126Z,51.84
2022-09-23T12:46:34.050Z,54.12
2022-09-23T12:47:34.019Z,49.11
2022-09-23T12:48:34.010Z,50.21
2022-09-23T12:49:34.076Z,49.61
2022-09-23T12:50:34.032Z,50.21
2022-09-23T12:51:33.961Z,48.71
2022-09-23T12:52:34.001Z,50.21
2022-09-23T12:53:33.953Z,47.69